Blue Galaxy — SWDA — position and weather

sailwx.info

Track history (hours):
 
Tides and Currents Weather Stations Pressure Air Temp Water Temp Dewpoint Dewpoint Depression Visibility Wind Speed Wind Dir Waves Ship Positions

Blue Galaxy

Last reported at 2018-Jun-21 02:59 UTC. Time now 2018-Jun-21 03:01 UTC.
Position N 37°57' E 023°38'.

Length 192 m; draft 6.7 m.

Type: Passenger vessel. MMSI: 239672000.

Date/timePositionNaut miles runAvg speedWind from/ knotsBaromVisibWave heightAir tempDewpointWater temp
2018-Jun-21 02:59N 37°57' E 023°38'0 0.0
2018-Jun-21 02:30N 37°57' E 023°38'2 3.6
2018-Jun-21 02:00N 37°55' E 023°37'918.3
2018-Jun-21 01:30N 37°47' E 023°42'1019.8
2018-Jun-21 01:00N 37°38' E 023°46'1119.8
2018-Jun-21 00:28N 37°27' E 023°49'1019.7
2018-Jun-20 23:57N 37°17' E 023°52'16 0.6
2018-Jun-19 19:55N 37°32' E 023°44'819.2
2018-Jun-19 19:31N 37°40' E 023°42'816.0
2018-Jun-19 19:01N 37°47' E 023°37'714.8
2018-Jun-19 18:30N 37°55' E 023°37'3 5.1
2018-Jun-19 18:00N 37°57' E 023°38'0 0.0
2018-Jun-19 17:30N 37°57' E 023°38'0 0.0
2018-Jun-19 17:00N 37°57' E 023°38'0 0.0
2018-Jun-19 16:30N 37°57' E 023°38'0 0.0
2018-Jun-19 16:00N 37°57' E 023°38'0 0.0
2018-Jun-19 15:30N 37°57' E 023°38'0 0.0
2018-Jun-19 15:00N 37°57' E 023°38'0 0.0
2018-Jun-19 14:30N 37°57' E 023°38'0 0.0
2018-Jun-19 14:00N 37°57' E 023°38'0 0.0
2018-Jun-19 13:30N 37°57' E 023°38'0 0.0
2018-Jun-19 13:00N 37°57' E 023°38'0 0.0
2018-Jun-19 12:30N 37°57' E 023°38'0 0.0
2018-Jun-19 12:00N 37°57' E 023°38'0 0.0
2018-Jun-19 11:30N 37°57' E 023°38'0 0.0
2018-Jun-19 11:00N 37°57' E 023°38'0 0.0
2018-Jun-19 10:30N 37°57' E 023°38'0 0.0
2018-Jun-19 10:00N 37°57' E 023°38'0 0.0
2018-Jun-19 09:30N 37°57' E 023°38'0 0.0
2018-Jun-19 09:00N 37°57' E 023°38'0 0.0
2018-Jun-19 08:30N 37°57' E 023°38'0 0.0
2018-Jun-19 07:56N 37°57' E 023°38'0 0.0
2018-Jun-19 07:29N 37°57' E 023°38'0 0.0
2018-Jun-19 06:59N 37°57' E 023°38'0 0.0
2018-Jun-19 06:29N 37°57' E 023°38'0 0.0
2018-Jun-19 05:59N 37°57' E 023°38'0 0.0
2018-Jun-19 05:29N 37°57' E 023°38'0 0.0
2018-Jun-19 04:59N 37°57' E 023°38'0 0.0
2018-Jun-19 04:29N 37°57' E 023°38'0 0.0
2018-Jun-19 03:59N 37°57' E 023°38'0 0.0
2018-Jun-19 03:29N 37°57' E 023°38'0 0.0
2018-Jun-19 02:59N 37°57' E 023°38'0 0.0
2018-Jun-19 02:29N 37°57' E 023°38'2 4.6
2018-Jun-19 02:01N 37°55' E 023°37'918.6
2018-Jun-19 01:31N 37°47' E 023°42'1019.5
2018-Jun-19 01:01N 37°37' E 023°46'129 5.6
2018-Jun-18 01:51N 35°30' E 024°12'12619.9
2018-Jun-17 19:32N 37°33' E 023°44'119.9
2018-Jun-17 19:28N 37°35' E 023°44'919.9
2018-Jun-17 19:00N 37°44' E 023°40'1019.2
2018-Jun-17 18:30N 37°53' E 023°36'4 8.8
2018-Jun-17 18:00N 37°57' E 023°38'0 0.0
2018-Jun-17 17:26N 37°57' E 023°38'0 0.0
2018-Jun-17 16:59N 37°57' E 023°38'0 0.0
2018-Jun-17 16:29N 37°57' E 023°38'0 0.0
2018-Jun-17 15:59N 37°57' E 023°38'0 0.0
2018-Jun-17 15:29N 37°57' E 023°38'0 0.0
2018-Jun-17 14:59N 37°57' E 023°38'0 0.0
2018-Jun-17 14:29N 37°57' E 023°38'0 0.0
2018-Jun-17 13:59N 37°57' E 023°38'0 0.0
2018-Jun-17 13:29N 37°57' E 023°38'0 0.0
2018-Jun-17 12:59N 37°57' E 023°38'0 0.0
2018-Jun-17 12:29N 37°57' E 023°38'0 0.0
2018-Jun-17 11:59N 37°57' E 023°38'0 0.0
2018-Jun-17 11:30N 37°57' E 023°38'0 0.0
2018-Jun-17 11:00N 37°57' E 023°38'0 0.0
2018-Jun-17 10:30N 37°57' E 023°38'0 0.0
2018-Jun-17 10:00N 37°57' E 023°38'0 0.0
2018-Jun-17 09:30N 37°57' E 023°38'0 0.0
2018-Jun-17 09:00N 37°57' E 023°38'0 0.0
2018-Jun-17 08:30N 37°57' E 023°38'0 0.0
2018-Jun-17 08:00N 37°57' E 023°38'0 0.0
2018-Jun-17 07:30N 37°57' E 023°38'0 0.0
2018-Jun-17 06:57N 37°57' E 023°38'0 0.0
2018-Jun-17 06:30N 37°57' E 023°38'0 0.0
2018-Jun-17 06:00N 37°57' E 023°38'0 0.0
2018-Jun-17 05:30N 37°57' E 023°38'0 0.0
2018-Jun-17 05:00N 37°57' E 023°38'0 0.0
2018-Jun-17 04:29N 37°57' E 023°38'0 0.0
2018-Jun-17 03:59N 37°57' E 023°38'0 0.0
2018-Jun-17 03:29N 37°57' E 023°38'0 0.0
2018-Jun-17 02:59N 37°57' E 023°38'0 0.0
2018-Jun-17 02:30N 37°57' E 023°38'3 6.2
2018-Jun-17 02:00N 37°54' E 023°37'1019.5
2018-Jun-17 01:30N 37°45' E 023°43'1119.9
2018-Jun-17 00:58N 37°35' E 023°47'127 5.6
2018-Jun-16 02:10N 35°30' E 024°12'419.3
2018-Jun-16 01:58N 35°33' E 024°14'12619.5
2018-Jun-15 19:30N 37°37' E 023°43'1020.0
2018-Jun-15 19:00N 37°46' E 023°38'918.6
2018-Jun-15 18:30N 37°55' E 023°37'2 4.0
2018-Jun-15 18:00N 37°57' E 023°38'0 0.0
2018-Jun-15 17:28N 37°57' E 023°38'0 0.0
2018-Jun-15 16:58N 37°57' E 023°38'0 0.0
2018-Jun-15 16:28N 37°57' E 023°38'0 0.0
2018-Jun-15 15:58N 37°57' E 023°38'0 0.0
2018-Jun-15 15:28N 37°57' E 023°38'0 0.0
2018-Jun-15 15:00N 37°57' E 023°38'0 0.0
2018-Jun-15 14:28N 37°57' E 023°38'0 0.0
2018-Jun-15 13:58N 37°57' E 023°38'0 0.0
2018-Jun-15 13:28N 37°57' E 023°38'0 0.0
2018-Jun-15 12:58N 37°57' E 023°38'0 0.0
2018-Jun-15 12:28N 37°57' E 023°38'0 0.0
2018-Jun-15 11:58N 37°57' E 023°38'0 0.0
2018-Jun-15 11:28N 37°57' E 023°38'0 0.0
2018-Jun-15 10:58N 37°57' E 023°38'0 0.0
2018-Jun-15 10:28N 37°57' E 023°38'0 0.0
2018-Jun-15 09:58N 37°57' E 023°38'0 0.0
2018-Jun-15 09:28N 37°57' E 023°38'0 0.0
2018-Jun-15 08:58N 37°57' E 023°38'0 0.0
2018-Jun-15 08:28N 37°57' E 023°38'0 0.0
2018-Jun-15 07:58N 37°57' E 023°38'0 0.0
2018-Jun-15 07:28N 37°57' E 023°38'0 0.0
2018-Jun-15 06:58N 37°57' E 023°38'0 0.0
2018-Jun-15 06:25N 37°57' E 023°38'0 0.0
2018-Jun-15 05:58N 37°57' E 023°38'0 0.0
2018-Jun-15 05:28N 37°57' E 023°38'0 0.0
2018-Jun-15 04:58N 37°57' E 023°38'0 0.0
2018-Jun-15 04:28N 37°57' E 023°38'0 0.0
2018-Jun-15 03:58N 37°57' E 023°38'0 0.0
2018-Jun-15 03:28N 37°57' E 023°38'0 0.0
2018-Jun-15 02:58N 37°57' E 023°38'0 0.0
2018-Jun-15 02:30N 37°57' E 023°38'2 4.3
2018-Jun-15 02:01N 37°55' E 023°37'1019.3
2018-Jun-15 01:30N 37°46' E 023°43'1020.0
2018-Jun-15 01:00N 37°37' E 023°47'1019.8
2018-Jun-15 00:30N 37°27' E 023°48'11319.7
2018-Jun-14 18:47N 35°36' E 024°12'619.2
2018-Jun-14 18:28N 35°30' E 024°12'1 0.0
2018-Jun-14 02:13N 35°29' E 024°11'419.8
2018-Jun-14 02:01N 35°34' E 024°13'11419.8
2018-Jun-13 20:15N 37°25' E 023°45'519.3
2018-Jun-13 20:00N 37°30' E 023°44'1019.2
2018-Jun-13 19:30N 37°39' E 023°41'816.0
2018-Jun-13 19:01N 37°46' E 023°37'815.3
2018-Jun-13 18:30N 37°54' E 023°37'3 0.9
2018-Jun-13 15:00N 37°57' E 023°38'0 0.0
2018-Jun-13 14:30N 37°57' E 023°38'0 0.0
2018-Jun-13 14:00N 37°57' E 023°38'0 0.0
2018-Jun-13 13:30N 37°57' E 023°38'0 0.0
2018-Jun-13 13:00N 37°57' E 023°38'0 0.0
2018-Jun-13 12:30N 37°57' E 023°38'0 0.0
2018-Jun-13 11:57N 37°57' E 023°38'0 0.0
2018-Jun-13 11:27N 37°57' E 023°38'0 0.0
2018-Jun-13 11:00N 37°57' E 023°38'0 0.0
2018-Jun-13 10:30N 37°57' E 023°38'0 0.0
2018-Jun-13 10:00N 37°57' E 023°38'0 0.0
2018-Jun-13 09:30N 37°57' E 023°38'0 0.0
2018-Jun-13 08:58N 37°57' E 023°38'0 0.0
2018-Jun-13 08:28N 37°57' E 023°38'0 0.0
2018-Jun-13 07:58N 37°57' E 023°38'0 0.0
2018-Jun-13 07:28N 37°57' E 023°38'0 0.0
2018-Jun-13 06:58N 37°57' E 023°38'0 0.0
2018-Jun-13 06:28N 37°57' E 023°38'0 0.0
2018-Jun-13 05:58N 37°57' E 023°38'0 0.0
2018-Jun-13 05:30N 37°57' E 023°38'0 0.0
2018-Jun-13 04:57N 37°57' E 023°38'0 0.0
2018-Jun-13 04:30N 37°57' E 023°38'0 0.0
2018-Jun-13 03:57N 37°57' E 023°38'0 0.0
2018-Jun-13 03:26N 37°57' E 023°38'0 0.0
2018-Jun-13 02:59N 37°57' E 023°38'0 0.0
2018-Jun-13 02:29N 37°57' E 023°38'2 4.3
2018-Jun-13 02:00N 37°55' E 023°37'918.8
2018-Jun-13 01:30N 37°47' E 023°42'1019.6
2018-Jun-13 01:00N 37°37' E 023°46'1020.0
2018-Jun-13 00:30N 37°28' E 023°49'1119.9
2018-Jun-12 23:58N 37°17' E 023°51'10119.7
2018-Jun-12 18:52N 35°38' E 024°12'819.4
2018-Jun-12 18:27N 35°30' E 024°12'1 0.1
2018-Jun-12 01:56N 35°29' E 024°11'12219.5
2018-Jun-11 19:42N 37°29' E 023°45'519.6
2018-Jun-11 19:27N 37°34' E 023°44'919.6
2018-Jun-11 19:00N 37°42' E 023°40'1019.4
2018-Jun-11 18:30N 37°51' E 023°37'610.8
2018-Jun-11 17:59N 37°57' E 023°38'0 0.0
2018-Jun-11 17:29N 37°57' E 023°38'0 0.0
2018-Jun-11 16:59N 37°57' E 023°38'0 0.0
2018-Jun-11 16:29N 37°57' E 023°38'0 0.0
2018-Jun-11 15:59N 37°57' E 023°38'0 0.0
2018-Jun-11 15:29N 37°57' E 023°38'0 0.0
2018-Jun-11 14:59N 37°57' E 023°38'0 0.0
2018-Jun-11 14:29N 37°57' E 023°38'0 0.0
2018-Jun-11 13:59N 37°57' E 023°38'0 0.0
2018-Jun-11 13:29N 37°57' E 023°38'0 0.0
2018-Jun-11 12:59N 37°57' E 023°38'0 0.0
2018-Jun-11 12:29N 37°57' E 023°38'0 0.0
2018-Jun-11 11:59N 37°57' E 023°38'0 0.0
2018-Jun-11 11:29N 37°57' E 023°38'0 0.0
2018-Jun-11 10:59N 37°57' E 023°38'0 0.0
2018-Jun-11 10:29N 37°57' E 023°38'0 0.0
2018-Jun-11 09:59N 37°57' E 023°38'0 0.0
2018-Jun-11 09:29N 37°57' E 023°38'0 0.0
2018-Jun-11 08:59N 37°57' E 023°38'0 0.0
2018-Jun-11 08:29N 37°57' E 023°38'0 0.0
2018-Jun-11 07:59N 37°57' E 023°38'0 0.0
2018-Jun-11 07:29N 37°57' E 023°38'0 0.0
2018-Jun-11 06:59N 37°57' E 023°38'0 0.0
2018-Jun-11 06:29N 37°57' E 023°38'0 0.0
2018-Jun-11 05:59N 37°57' E 023°38'0 0.0
2018-Jun-11 05:29N 37°57' E 023°38'0 0.0
2018-Jun-11 04:59N 37°57' E 023°38'0 0.0
2018-Jun-11 04:29N 37°57' E 023°38'0 0.0
2018-Jun-11 03:59N 37°57' E 023°38'0 0.0
2018-Jun-11 03:29N 37°57' E 023°38'0 0.0
2018-Jun-11 02:59N 37°57' E 023°38'  
Track history (hours):
 
Tides and Currents Weather Stations Pressure Air Temp Water Temp Dewpoint Dewpoint Depression Visibility Wind Speed Wind Dir Waves Ship Positions

Blue Galaxy

Last reported at 2018-Jun-21 02:59 UTC. Time now 2018-Jun-21 03:01 UTC.
Position N 37°57' E 023°38'.

Length 192 m; draft 6.7 m.

Type: Passenger vessel. MMSI: 239672000.

Date/timePositionNaut miles runAvg speedWind from/ knotsBaromVisibWave heightAir tempDewpointWater temp
2018-Jun-21 02:59N 37°57' E 023°38'0 0.0
2018-Jun-21 02:30N 37°57' E 023°38'2 3.6
2018-Jun-21 02:00N 37°55' E 023°37'918.3
2018-Jun-21 01:30N 37°47' E 023°42'1019.8
2018-Jun-21 01:00N 37°38' E 023°46'1119.8
2018-Jun-21 00:28N 37°27' E 023°49'1019.7
2018-Jun-20 23:57N 37°17' E 023°52'16 0.6
2018-Jun-19 19:55N 37°32' E 023°44'819.2
2018-Jun-19 19:31N 37°40' E 023°42'816.0
2018-Jun-19 19:01N 37°47' E 023°37'714.8
2018-Jun-19 18:30N 37°55' E 023°37'3 5.1
2018-Jun-19 18:00N 37°57' E 023°38'0 0.0
2018-Jun-19 17:30N 37°57' E 023°38'0 0.0
2018-Jun-19 17:00N 37°57' E 023°38'0 0.0
2018-Jun-19 16:30N 37°57' E 023°38'0 0.0
2018-Jun-19 16:00N 37°57' E 023°38'0 0.0
2018-Jun-19 15:30N 37°57' E 023°38'0 0.0
2018-Jun-19 15:00N 37°57' E 023°38'0 0.0
2018-Jun-19 14:30N 37°57' E 023°38'0 0.0
2018-Jun-19 14:00N 37°57' E 023°38'0 0.0
2018-Jun-19 13:30N 37°57' E 023°38'0 0.0
2018-Jun-19 13:00N 37°57' E 023°38'0 0.0
2018-Jun-19 12:30N 37°57' E 023°38'0 0.0
2018-Jun-19 12:00N 37°57' E 023°38'0 0.0
2018-Jun-19 11:30N 37°57' E 023°38'0 0.0
2018-Jun-19 11:00N 37°57' E 023°38'0 0.0
2018-Jun-19 10:30N 37°57' E 023°38'0 0.0
2018-Jun-19 10:00N 37°57' E 023°38'0 0.0
2018-Jun-19 09:30N 37°57' E 023°38'0 0.0
2018-Jun-19 09:00N 37°57' E 023°38'0 0.0
2018-Jun-19 08:30N 37°57' E 023°38'0 0.0
2018-Jun-19 07:56N 37°57' E 023°38'0 0.0
2018-Jun-19 07:29N 37°57' E 023°38'0 0.0
2018-Jun-19 06:59N 37°57' E 023°38'0 0.0
2018-Jun-19 06:29N 37°57' E 023°38'0 0.0
2018-Jun-19 05:59N 37°57' E 023°38'0 0.0
2018-Jun-19 05:29N 37°57' E 023°38'0 0.0
2018-Jun-19 04:59N 37°57' E 023°38'0 0.0
2018-Jun-19 04:29N 37°57' E 023°38'0 0.0
2018-Jun-19 03:59N 37°57' E 023°38'0 0.0
2018-Jun-19 03:29N 37°57' E 023°38'0 0.0
2018-Jun-19 02:59N 37°57' E 023°38'0 0.0
2018-Jun-19 02:29N 37°57' E 023°38'2 4.6
2018-Jun-19 02:01N 37°55' E 023°37'918.6
2018-Jun-19 01:31N 37°47' E 023°42'1019.5
2018-Jun-19 01:01N 37°37' E 023°46'129 5.6
2018-Jun-18 01:51N 35°30' E 024°12'12619.9
2018-Jun-17 19:32N 37°33' E 023°44'119.9
2018-Jun-17 19:28N 37°35' E 023°44'919.9
2018-Jun-17 19:00N 37°44' E 023°40'1019.2
2018-Jun-17 18:30N 37°53' E 023°36'4 8.8
2018-Jun-17 18:00N 37°57' E 023°38'0 0.0
2018-Jun-17 17:26N 37°57' E 023°38'0 0.0
2018-Jun-17 16:59N 37°57' E 023°38'0 0.0
2018-Jun-17 16:29N 37°57' E 023°38'0 0.0
2018-Jun-17 15:59N 37°57' E 023°38'0 0.0
2018-Jun-17 15:29N 37°57' E 023°38'0 0.0
2018-Jun-17 14:59N 37°57' E 023°38'0 0.0
2018-Jun-17 14:29N 37°57' E 023°38'0 0.0
2018-Jun-17 13:59N 37°57' E 023°38'0 0.0
2018-Jun-17 13:29N 37°57' E 023°38'0 0.0
2018-Jun-17 12:59N 37°57' E 023°38'0 0.0
2018-Jun-17 12:29N 37°57' E 023°38'0 0.0
2018-Jun-17 11:59N 37°57' E 023°38'0 0.0
2018-Jun-17 11:30N 37°57' E 023°38'0 0.0
2018-Jun-17 11:00N 37°57' E 023°38'0 0.0
2018-Jun-17 10:30N 37°57' E 023°38'0 0.0
2018-Jun-17 10:00N 37°57' E 023°38'0 0.0
2018-Jun-17 09:30N 37°57' E 023°38'0 0.0
2018-Jun-17 09:00N 37°57' E 023°38'0 0.0
2018-Jun-17 08:30N 37°57' E 023°38'0 0.0
2018-Jun-17 08:00N 37°57' E 023°38'0 0.0
2018-Jun-17 07:30N 37°57' E 023°38'0 0.0
2018-Jun-17 06:57N 37°57' E 023°38'0 0.0
2018-Jun-17 06:30N 37°57' E 023°38'0 0.0
2018-Jun-17 06:00N 37°57' E 023°38'0 0.0
2018-Jun-17 05:30N 37°57' E 023°38'0 0.0
2018-Jun-17 05:00N 37°57' E 023°38'0 0.0
2018-Jun-17 04:29N 37°57' E 023°38'0 0.0
2018-Jun-17 03:59N 37°57' E 023°38'0 0.0
2018-Jun-17 03:29N 37°57' E 023°38'0 0.0
2018-Jun-17 02:59N 37°57' E 023°38'0 0.0
2018-Jun-17 02:30N 37°57' E 023°38'3 6.2
2018-Jun-17 02:00N 37°54' E 023°37'1019.5
2018-Jun-17 01:30N 37°45' E 023°43'1119.9
2018-Jun-17 00:58N 37°35' E 023°47'127 5.6
2018-Jun-16 02:10N 35°30' E 024°12'419.3
2018-Jun-16 01:58N 35°33' E 024°14'12619.5
2018-Jun-15 19:30N 37°37' E 023°43'1020.0
2018-Jun-15 19:00N 37°46' E 023°38'918.6
2018-Jun-15 18:30N 37°55' E 023°37'2 4.0
2018-Jun-15 18:00N 37°57' E 023°38'0 0.0
2018-Jun-15 17:28N 37°57' E 023°38'0 0.0
2018-Jun-15 16:58N 37°57' E 023°38'0 0.0
2018-Jun-15 16:28N 37°57' E 023°38'0 0.0
2018-Jun-15 15:58N 37°57' E 023°38'0 0.0
2018-Jun-15 15:28N 37°57' E 023°38'0 0.0
2018-Jun-15 15:00N 37°57' E 023°38'0 0.0
2018-Jun-15 14:28N 37°57' E 023°38'0 0.0
2018-Jun-15 13:58N 37°57' E 023°38'0 0.0
2018-Jun-15 13:28N 37°57' E 023°38'0 0.0
2018-Jun-15 12:58N 37°57' E 023°38'0 0.0
2018-Jun-15 12:28N 37°57' E 023°38'0 0.0
2018-Jun-15 11:58N 37°57' E 023°38'0 0.0
2018-Jun-15 11:28N 37°57' E 023°38'0 0.0
2018-Jun-15 10:58N 37°57' E 023°38'0 0.0
2018-Jun-15 10:28N 37°57' E 023°38'0 0.0
2018-Jun-15 09:58N 37°57' E 023°38'0 0.0
2018-Jun-15 09:28N 37°57' E 023°38'0 0.0
2018-Jun-15 08:58N 37°57' E 023°38'0 0.0
2018-Jun-15 08:28N 37°57' E 023°38'0 0.0
2018-Jun-15 07:58N 37°57' E 023°38'0 0.0
2018-Jun-15 07:28N 37°57' E 023°38'0 0.0
2018-Jun-15 06:58N 37°57' E 023°38'0 0.0
2018-Jun-15 06:25N 37°57' E 023°38'0 0.0
2018-Jun-15 05:58N 37°57' E 023°38'0 0.0
2018-Jun-15 05:28N 37°57' E 023°38'0 0.0
2018-Jun-15 04:58N 37°57' E 023°38'0 0.0
2018-Jun-15 04:28N 37°57' E 023°38'0 0.0
2018-Jun-15 03:58N 37°57' E 023°38'0 0.0
2018-Jun-15 03:28N 37°57' E 023°38'0 0.0
2018-Jun-15 02:58N 37°57' E 023°38'0 0.0
2018-Jun-15 02:30N 37°57' E 023°38'2 4.3
2018-Jun-15 02:01N 37°55' E 023°37'1019.3
2018-Jun-15 01:30N 37°46' E 023°43'1020.0
2018-Jun-15 01:00N 37°37' E 023°47'1019.8
2018-Jun-15 00:30N 37°27' E 023°48'11319.7
2018-Jun-14 18:47N 35°36' E 024°12'619.2
2018-Jun-14 18:28N 35°30' E 024°12'1 0.0
2018-Jun-14 02:13N 35°29' E 024°11'419.8
2018-Jun-14 02:01N 35°34' E 024°13'11419.8
2018-Jun-13 20:15N 37°25' E 023°45'519.3
2018-Jun-13 20:00N 37°30' E 023°44'1019.2
2018-Jun-13 19:30N 37°39' E 023°41'816.0
2018-Jun-13 19:01N 37°46' E 023°37'815.3
2018-Jun-13 18:30N 37°54' E 023°37'3 0.9
2018-Jun-13 15:00N 37°57' E 023°38'0 0.0
2018-Jun-13 14:30N 37°57' E 023°38'0 0.0
2018-Jun-13 14:00N 37°57' E 023°38'0 0.0
2018-Jun-13 13:30N 37°57' E 023°38'0 0.0
2018-Jun-13 13:00N 37°57' E 023°38'0 0.0
2018-Jun-13 12:30N 37°57' E 023°38'0 0.0
2018-Jun-13 11:57N 37°57' E 023°38'0 0.0
2018-Jun-13 11:27N 37°57' E 023°38'0 0.0
2018-Jun-13 11:00N 37°57' E 023°38'0 0.0
2018-Jun-13 10:30N 37°57' E 023°38'0 0.0
2018-Jun-13 10:00N 37°57' E 023°38'0 0.0
2018-Jun-13 09:30N 37°57' E 023°38'0 0.0
2018-Jun-13 08:58N 37°57' E 023°38'0 0.0
2018-Jun-13 08:28N 37°57' E 023°38'0 0.0
2018-Jun-13 07:58N 37°57' E 023°38'0 0.0
2018-Jun-13 07:28N 37°57' E 023°38'0 0.0
2018-Jun-13 06:58N 37°57' E 023°38'0 0.0
2018-Jun-13 06:28N 37°57' E 023°38'0 0.0
2018-Jun-13 05:58N 37°57' E 023°38'0 0.0
2018-Jun-13 05:30N 37°57' E 023°38'0 0.0
2018-Jun-13 04:57N 37°57' E 023°38'0 0.0
2018-Jun-13 04:30N 37°57' E 023°38'0 0.0
2018-Jun-13 03:57N 37°57' E 023°38'0 0.0
2018-Jun-13 03:26N 37°57' E 023°38'0 0.0
2018-Jun-13 02:59N 37°57' E 023°38'0 0.0
2018-Jun-13 02:29N 37°57' E 023°38'2 4.3
2018-Jun-13 02:00N 37°55' E 023°37'918.8
2018-Jun-13 01:30N 37°47' E 023°42'1019.6
2018-Jun-13 01:00N 37°37' E 023°46'1020.0
2018-Jun-13 00:30N 37°28' E 023°49'1119.9
2018-Jun-12 23:58N 37°17' E 023°51'10119.7
2018-Jun-12 18:52N 35°38' E 024°12'819.4
2018-Jun-12 18:27N 35°30' E 024°12'1 0.1
2018-Jun-12 01:56N 35°29' E 024°11'12219.5
2018-Jun-11 19:42N 37°29' E 023°45'519.6
2018-Jun-11 19:27N 37°34' E 023°44'919.6
2018-Jun-11 19:00N 37°42' E 023°40'1019.4
2018-Jun-11 18:30N 37°51' E 023°37'610.8
2018-Jun-11 17:59N 37°57' E 023°38'0 0.0
2018-Jun-11 17:29N 37°57' E 023°38'0 0.0
2018-Jun-11 16:59N 37°57' E 023°38'0 0.0
2018-Jun-11 16:29N 37°57' E 023°38'0 0.0
2018-Jun-11 15:59N 37°57' E 023°38'0 0.0
2018-Jun-11 15:29N 37°57' E 023°38'0 0.0
2018-Jun-11 14:59N 37°57' E 023°38'0 0.0
2018-Jun-11 14:29N 37°57' E 023°38'0 0.0
2018-Jun-11 13:59N 37°57' E 023°38'0 0.0
2018-Jun-11 13:29N 37°57' E 023°38'0 0.0
2018-Jun-11 12:59N 37°57' E 023°38'0 0.0
2018-Jun-11 12:29N 37°57' E 023°38'0 0.0
2018-Jun-11 11:59N 37°57' E 023°38'0 0.0
2018-Jun-11 11:29N 37°57' E 023°38'0 0.0
2018-Jun-11 10:59N 37°57' E 023°38'0 0.0
2018-Jun-11 10:29N 37°57' E 023°38'0 0.0
2018-Jun-11 09:59N 37°57' E 023°38'0 0.0
2018-Jun-11 09:29N 37°57' E 023°38'0 0.0
2018-Jun-11 08:59N 37°57' E 023°38'0 0.0
2018-Jun-11 08:29N 37°57' E 023°38'0 0.0
2018-Jun-11 07:59N 37°57' E 023°38'0 0.0
2018-Jun-11 07:29N 37°57' E 023°38'0 0.0
2018-Jun-11 06:59N 37°57' E 023°38'0 0.0
2018-Jun-11 06:29N 37°57' E 023°38'0 0.0
2018-Jun-11 05:59N 37°57' E 023°38'0 0.0
2018-Jun-11 05:29N 37°57' E 023°38'0 0.0
2018-Jun-11 04:59N 37°57' E 023°38'0 0.0
2018-Jun-11 04:29N 37°57' E 023°38'0 0.0
2018-Jun-11 03:59N 37°57' E 023°38'0 0.0
2018-Jun-11 03:29N 37°57' E 023°38'0 0.0
2018-Jun-11 02:59N 37°57' E 023°38'  

Dump ship's entire track history